This is the latest recevied weather packets stored in our database for station/object IW1CBG-3. If no packets are shown the sender has not sent any weather packets the latest 10 day(s).
| Time | Temp. | Humidity | Pressure | Rain* | Wind** | Luminosity | Snow |
|---|---|---|---|---|---|---|---|
| 1777618239 | 12.22° C | 74% | 1037.1 hPa | 0 mm | - | - | - |
| 1777617639 | 11.67° C | 76% | 1037.3 hPa | 0 mm | - | - | - |
| 1777617042 | 10.56° C | 82% | 1037.6 hPa | 0 mm | - | - | - |
| 1777616442 | 10° C | 84% | 1037.9 hPa | 0 mm | - | - | - |
| 1777615841 | 8.89° C | 93% | 1038.4 hPa | 0 mm | - | - | - |
| 1777615242 | 7.78° C | 98% | 1038.5 hPa | 0 mm | - | - | - |
| 1777614639 | 6.67° C | 98% | 1039.1 hPa | 0 mm | - | - | - |
| 1777614039 | 5.56° C | 98% | 1039.3 hPa | 0 mm | - | - | - |
| 1777613439 | 5° C | 98% | 1039.5 hPa | 0 mm | - | - | - |
| 1777612839 | 4.44° C | 98% | 1039.4 hPa | 0 mm | - | - | - |
| 1777612239 | 4.44° C | 98% | 1039.6 hPa | 0 mm | - | - | - |
| 1777611639 | 4.44° C | 98% | 1039.6 hPa | 0 mm | - | - | - |
| 1777611043 | 4.44° C | 98% | 1039.6 hPa | 0 mm | - | - | - |
| 1777610439 | 4.44° C | 98% | 1039.3 hPa | 0 mm | - | - | - |
| 1777609839 | 4.44° C | 98% | 1039.3 hPa | 0 mm | - | - | - |
| 1777609238 | 4.44° C | 98% | 1039.4 hPa | 0 mm | - | - | - |
| 1777608639 | 4.44° C | 97% | 1039.3 hPa | 0 mm | - | - | - |
| 1777608039 | 4.44° C | 97% | 1039.3 hPa | 0 mm | - | - | - |
| 1777607439 | 4.44° C | 97% | 1039.3 hPa | 0 mm | - | - | - |
| 1777606839 | 5° C | 97% | 1039.3 hPa | 0 mm | - | - | - |
| 1777606239 | 5° C | 97% | 1039.1 hPa | 0 mm | - | - | - |
| 1777605638 | 5° C | 97% | 1039.1 hPa | 0 mm | - | - | - |
| 1777605039 | 5° C | 97% | 1039.2 hPa | 0 mm | - | - | - |
| 1777604439 | 5° C | 97% | 1039 hPa | 0 mm | - | - | - |
| 1777603839 | 5° C | 97% | 1038.9 hPa | 0 mm | - | - | - |
* Rain latest hour (hover to see other rain measurements)
** Current wind speed in m/s (hover to see current wind gust speed)